createdAt,value
2017-07-09T00:01:48.984Z,19.47
2017-07-09T00:04:17.332Z,24.03
2017-07-09T00:06:45.646Z,24.87
2017-07-09T00:09:14.783Z,19.40
2017-07-09T00:11:43.139Z,25.63
2017-07-09T00:14:12.209Z,22.77
2017-07-09T00:16:40.555Z,22.53
2017-07-09T00:19:08.914Z,24.13
2017-07-09T00:21:37.236Z,25.13
2017-07-09T00:24:05.536Z,18.37
2017-07-09T00:26:33.896Z,17.27
2017-07-09T00:29:02.207Z,20.17
2017-07-09T00:31:30.565Z,20.53
2017-07-09T00:33:58.931Z,19.43
2017-07-09T00:36:27.288Z,25.00
2017-07-09T00:38:55.648Z,18.83
2017-07-09T00:41:24.729Z,18.83
2017-07-09T00:43:53.039Z,28.03
2017-07-09T00:46:21.402Z,30.27
2017-07-09T00:48:49.792Z,22.57
2017-07-09T00:51:18.148Z,31.50
2017-07-09T00:53:46.455Z,25.63
2017-07-09T00:56:16.825Z,36.13
2017-07-09T00:58:45.137Z,27.93
2017-07-09T01:01:14.204Z,24.47
2017-07-09T01:03:42.649Z,29.00
2017-07-09T01:06:11.715Z,23.77
2017-07-09T01:08:40.847Z,25.90
2017-07-09T01:11:09.187Z,27.87
2017-07-09T01:13:37.534Z,31.13
2017-07-09T01:16:05.840Z,31.03
2017-07-09T01:18:34.192Z,38.30
2017-07-09T01:21:02.549Z,32.87
2017-07-09T01:23:30.885Z,40.40
2017-07-09T01:25:59.187Z,39.77
2017-07-09T01:28:27.549Z,36.77
2017-07-09T01:30:55.863Z,44.03
2017-07-09T01:33:24.982Z,31.73
2017-07-09T01:35:54.104Z,37.27
2017-07-09T01:38:22.464Z,38.70
2017-07-09T01:40:50.921Z,44.13
2017-07-09T01:43:19.219Z,41.17
2017-07-09T01:45:47.538Z,31.73
2017-07-09T01:48:15.909Z,39.87
2017-07-09T01:50:44.231Z,39.50
2017-07-09T01:53:12.529Z,42.60
2017-07-09T01:55:40.990Z,36.60
2017-07-09T01:58:09.333Z,34.17
2017-07-09T02:00:37.841Z,33.33
2017-07-09T02:03:06.534Z,32.77
2017-07-09T02:05:34.890Z,28.30
2017-07-09T02:08:04.746Z,34.93
2017-07-09T02:10:33.105Z,39.27
2017-07-09T02:13:02.189Z,28.60
2017-07-09T02:15:30.551Z,36.77
2017-07-09T02:18:01.013Z,37.37
2017-07-09T02:20:29.370Z,42.53
2017-07-09T02:22:57.673Z,39.20
2017-07-09T02:25:26.012Z,43.47
2017-07-09T02:27:55.148Z,38.90
2017-07-09T02:30:23.483Z,35.67
2017-07-09T02:32:51.803Z,34.77
2017-07-09T02:35:20.151Z,38.33
2017-07-09T02:37:48.447Z,39.83
2017-07-09T02:40:16.800Z,36.90
2017-07-09T02:42:45.109Z,34.83
2017-07-09T02:45:18.664Z,39.90
2017-07-09T02:47:47.744Z,39.77
2017-07-09T02:50:16.047Z,36.93
2017-07-09T02:52:44.400Z,37.37
2017-07-09T02:55:12.763Z,38.90
2017-07-09T02:57:41.074Z,46.07
2017-07-09T03:00:09.440Z,36.23
2017-07-09T03:02:37.891Z,42.57
2017-07-09T03:05:06.961Z,43.30
2017-07-09T03:07:35.323Z,42.70
2017-07-09T03:10:04.437Z,41.50
2017-07-09T03:12:33.522Z,49.20
2017-07-09T03:15:01.828Z,43.67
2017-07-09T03:17:30.134Z,47.27
2017-07-09T03:19:58.492Z,38.70
2017-07-09T03:22:26.851Z,38.40
2017-07-09T03:24:55.193Z,39.40
2017-07-09T03:27:25.196Z,48.33
2017-07-09T03:29:53.547Z,52.50
2017-07-09T03:32:21.865Z,51.37
2017-07-09T03:34:50.224Z,62.37
2017-07-09T03:37:18.542Z,61.77
2017-07-09T03:39:46.918Z,61.10
2017-07-09T03:42:15.224Z,59.43
2017-07-09T03:44:43.630Z,48.33
2017-07-09T03:47:11.995Z,56.20
2017-07-09T03:49:40.340Z,56.80
2017-07-09T03:52:08.652Z,45.03
2017-07-09T03:54:37.073Z,54.70
2017-07-09T03:57:05.421Z,38.63
2017-07-09T03:59:33.744Z,50.20
2017-07-09T04:02:02.214Z,53.30
2017-07-09T04:04:30.526Z,55.63
2017-07-09T04:06:58.840Z,56.40
2017-07-09T04:09:27.397Z,52.47
2017-07-09T04:11:55.738Z,52.43
2017-07-09T04:14:24.108Z,51.30
2017-07-09T04:16:52.419Z,48.97
2017-07-09T04:19:20.788Z,56.00
2017-07-09T04:21:49.124Z,48.90
2017-07-09T04:24:17.532Z,45.47
2017-07-09T04:26:45.882Z,41.57
2017-07-09T04:29:14.244Z,45.30
2017-07-09T04:31:42.554Z,42.70
2017-07-09T04:34:10.856Z,39.97
2017-07-09T04:36:39.216Z,40.57
2017-07-09T04:39:07.511Z,32.50
2017-07-09T04:41:35.912Z,36.37
2017-07-09T04:44:04.960Z,29.70
2017-07-09T04:46:33.524Z,34.37
2017-07-09T04:49:01.832Z,34.83
2017-07-09T04:51:30.141Z,37.37
2017-07-09T04:53:59.263Z,34.63
2017-07-09T04:56:27.612Z,38.10
2017-07-09T04:58:55.940Z,35.97
2017-07-09T05:01:24.288Z,36.07
2017-07-09T05:03:53.404Z,36.73
2017-07-09T05:06:22.652Z,36.43
2017-07-09T05:08:50.948Z,34.10
2017-07-09T05:11:19.284Z,33.10
2017-07-09T05:13:47.778Z,33.70
2017-07-09T05:16:17.529Z,37.00
2017-07-09T05:18:45.830Z,33.50
2017-07-09T05:21:14.452Z,40.17
2017-07-09T05:23:42.805Z,32.33
2017-07-09T05:26:11.252Z,39.37
2017-07-09T05:28:39.562Z,32.17
2017-07-09T05:31:07.868Z,37.27
2017-07-09T05:33:36.217Z,37.43
2017-07-09T05:36:07.580Z,38.07
2017-07-09T05:38:35.946Z,32.00
2017-07-09T05:41:04.254Z,29.43
2017-07-09T05:43:32.551Z,41.53
2017-07-09T05:46:00.917Z,38.10
2017-07-09T05:48:29.959Z,41.23
2017-07-09T05:50:58.334Z,37.87
2017-07-09T05:53:26.683Z,41.67
2017-07-09T05:55:55.035Z,33.77
2017-07-09T05:58:23.345Z,40.27
2017-07-09T06:00:52.462Z,35.27
2017-07-09T06:03:20.813Z,31.50
2017-07-09T06:05:49.124Z,30.70
2017-07-09T06:08:18.232Z,35.37
2017-07-09T06:10:47.309Z,33.03
2017-07-09T06:13:15.665Z,33.63
2017-07-09T06:15:43.980Z,33.70
2017-07-09T06:18:12.352Z,33.67
2017-07-09T06:20:40.811Z,35.60
2017-07-09T06:23:09.107Z,32.70
2017-07-09T06:25:37.415Z,37.67
2017-07-09T06:28:05.758Z,39.40
2017-07-09T06:30:34.109Z,36.70
2017-07-09T06:33:02.432Z,29.57
2017-07-09T06:35:30.797Z,37.07
2017-07-09T06:37:59.182Z,30.17
2017-07-09T06:40:27.488Z,30.77
2017-07-09T06:42:55.791Z,28.30
2017-07-09T06:45:24.150Z,29.83
2017-07-09T06:47:52.461Z,29.80
2017-07-09T06:50:20.945Z,27.97
2017-07-09T06:52:49.256Z,28.83
2017-07-09T06:55:17.573Z,29.77
2017-07-09T06:57:45.949Z,31.40
2017-07-09T07:00:15.541Z,28.40
2017-07-09T07:02:43.924Z,28.90
2017-07-09T07:05:12.282Z,33.73
2017-07-09T07:07:40.767Z,35.13
2017-07-09T07:10:09.146Z,29.40
2017-07-09T07:12:37.511Z,33.67
2017-07-09T07:15:05.943Z,25.87
2017-07-09T07:17:34.296Z,26.17
2017-07-09T07:20:02.688Z,23.93
2017-07-09T07:22:30.995Z,21.33
2017-07-09T07:25:00.416Z,23.07
2017-07-09T07:27:28.789Z,25.13
2017-07-09T07:29:57.142Z,20.50
2017-07-09T07:32:25.535Z,27.40
2017-07-09T07:34:53.850Z,21.63
2017-07-09T07:37:22.228Z,26.40
2017-07-09T07:39:50.739Z,35.00
2017-07-09T07:42:19.064Z,20.30
2017-07-09T07:44:47.416Z,27.07
2017-07-09T07:47:15.777Z,23.50
2017-07-09T07:49:44.152Z,26.43
2017-07-09T07:52:12.540Z,22.43
2017-07-09T07:54:40.893Z,35.43
2017-07-09T07:57:09.253Z,22.83
2017-07-09T07:59:37.665Z,21.10
2017-07-09T08:02:06.172Z,23.23
2017-07-09T08:04:34.473Z,27.63
2017-07-09T08:07:03.550Z,23.97
2017-07-09T08:09:31.892Z,21.33
2017-07-09T08:12:00.215Z,22.00
2017-07-09T08:14:29.777Z,26.43
2017-07-09T08:16:58.097Z,22.30
2017-07-09T08:19:28.832Z,24.33
2017-07-09T08:21:57.338Z,29.30
2017-07-09T08:24:25.674Z,26.53
2017-07-09T08:26:53.989Z,25.90
2017-07-09T08:29:22.644Z,25.50
2017-07-09T08:31:51.009Z,19.40
2017-07-09T08:34:19.322Z,24.00
2017-07-09T08:36:47.693Z,20.53
2017-07-09T08:39:15.992Z,19.47
2017-07-09T08:41:44.339Z,18.73
2017-07-09T08:44:12.649Z,15.97
2017-07-09T08:46:41.004Z,21.33
2017-07-09T08:49:09.314Z,19.60
2017-07-09T08:51:37.693Z,17.40
2017-07-09T08:54:06.765Z,20.13
2017-07-09T08:56:35.077Z,20.80
2017-07-09T08:59:03.583Z,16.17
2017-07-09T09:01:32.657Z,18.90
2017-07-09T09:04:02.437Z,17.60
2017-07-09T09:06:31.001Z,18.43
2017-07-09T09:08:59.307Z,18.27
2017-07-09T09:11:27.608Z,18.60
2017-07-09T09:13:56.220Z,20.33
2017-07-09T09:16:24.550Z,19.30
2017-07-09T09:18:52.906Z,18.20
2017-07-09T09:21:21.209Z,18.10
2017-07-09T09:23:49.625Z,20.40
2017-07-09T09:26:20.190Z,24.60
2017-07-09T09:28:49.352Z,17.27
2017-07-09T09:31:17.729Z,21.20
2017-07-09T09:33:46.067Z,14.30
2017-07-09T09:36:14.364Z,18.30
2017-07-09T09:38:43.477Z,17.97
2017-07-09T09:41:12.803Z,14.70
2017-07-09T09:43:41.114Z,14.97
2017-07-09T09:46:09.416Z,13.83
2017-07-09T09:48:37.773Z,16.20
2017-07-09T09:51:06.132Z,15.50
2017-07-09T09:53:34.484Z,13.23
2017-07-09T09:56:02.849Z,15.50
2017-07-09T09:58:31.158Z,15.20
2017-07-09T10:00:59.580Z,23.90
2017-07-09T10:03:27.890Z,17.13
2017-07-09T10:05:56.259Z,14.90
2017-07-09T10:08:24.606Z,16.87
2017-07-09T10:10:53.394Z,20.20
2017-07-09T10:13:21.876Z,16.87
2017-07-09T10:15:51.073Z,19.30
2017-07-09T10:18:19.374Z,16.53
2017-07-09T10:20:47.763Z,15.00
2017-07-09T10:23:16.109Z,18.67
2017-07-09T10:25:44.407Z,16.00
2017-07-09T10:28:12.767Z,17.13
2017-07-09T10:30:41.080Z,16.10
2017-07-09T10:33:09.738Z,19.07
2017-07-09T10:35:38.924Z,20.00
2017-07-09T10:38:07.721Z,20.57
2017-07-09T10:40:36.081Z,21.03
2017-07-09T10:43:04.398Z,20.70
2017-07-09T10:45:32.744Z,20.77
2017-07-09T10:48:07.385Z,18.17
2017-07-09T10:50:35.690Z,22.33
2017-07-09T10:53:04.003Z,18.10
2017-07-09T10:55:32.404Z,18.60
2017-07-09T10:58:00.729Z,21.03
2017-07-09T11:00:32.575Z,17.60
2017-07-09T11:03:00.881Z,19.40
2017-07-09T11:05:29.221Z,19.27
2017-07-09T11:07:57.616Z,19.80
2017-07-09T11:10:25.996Z,22.50
2017-07-09T11:12:54.424Z,18.63
2017-07-09T11:15:22.805Z,22.07
2017-07-09T11:17:51.174Z,19.93
2017-07-09T11:20:19.598Z,18.43
2017-07-09T11:22:47.989Z,16.67
2017-07-09T11:25:16.392Z,19.33
2017-07-09T11:27:44.811Z,18.73
2017-07-09T11:30:13.234Z,18.80
2017-07-09T11:32:41.622Z,17.20
2017-07-09T11:35:10.014Z,15.90
2017-07-09T11:37:38.434Z,17.70
2017-07-09T11:40:06.831Z,18.23
2017-07-09T11:42:35.233Z,16.67
2017-07-09T11:45:05.449Z,18.37
2017-07-09T11:47:33.835Z,17.07
2017-07-09T11:50:04.686Z,16.40
2017-07-09T11:52:33.007Z,16.40
2017-07-09T11:55:03.245Z,19.13
2017-07-09T11:57:32.159Z,18.80
2017-07-09T12:00:00.504Z,16.10
2017-07-09T12:02:28.817Z,17.17
2017-07-09T12:04:57.172Z,15.20
2017-07-09T12:07:25.478Z,15.07
2017-07-09T12:09:54.639Z,14.70
2017-07-09T12:12:22.944Z,15.40
2017-07-09T12:14:51.352Z,16.50
2017-07-09T12:17:19.704Z,13.77
2017-07-09T12:19:48.926Z,14.50
2017-07-09T12:22:17.247Z,14.00
2017-07-09T12:24:46.478Z,15.77
2017-07-09T12:27:16.764Z,12.90
2017-07-09T12:29:45.072Z,13.80
2017-07-09T12:32:13.426Z,13.40
2017-07-09T12:34:41.739Z,14.60
2017-07-09T12:37:10.094Z,13.13
2017-07-09T12:39:39.161Z,15.53
2017-07-09T12:42:07.514Z,13.73
2017-07-09T12:44:35.929Z,17.97
2017-07-09T12:47:04.487Z,13.10
2017-07-09T12:49:33.595Z,14.47
2017-07-09T12:52:03.191Z,18.93
2017-07-09T12:54:31.546Z,13.53
2017-07-09T12:56:59.897Z,17.30
2017-07-09T12:59:28.277Z,16.23
2017-07-09T13:01:56.669Z,13.90
2017-07-09T13:04:25.764Z,19.57
2017-07-09T13:06:54.127Z,14.87
2017-07-09T13:09:22.429Z,15.93
2017-07-09T13:11:51.788Z,21.17
2017-07-09T13:14:20.230Z,15.20
2017-07-09T13:16:48.633Z,15.20
2017-07-09T13:19:17.094Z,12.73
2017-07-09T13:21:46.512Z,21.43
2017-07-09T13:24:15.629Z,12.30
2017-07-09T13:26:45.536Z,15.20
2017-07-09T13:29:13.867Z,10.57
2017-07-09T13:31:42.157Z,11.27
2017-07-09T13:34:10.543Z,11.40
2017-07-09T13:36:38.883Z,11.53
2017-07-09T13:39:07.245Z,11.87
2017-07-09T13:41:36.323Z,13.43
2017-07-09T13:44:04.780Z,13.17
2017-07-09T13:46:33.215Z,12.57
2017-07-09T13:49:01.619Z,12.53
2017-07-09T13:51:30.386Z,15.80
2017-07-09T13:53:58.965Z,15.40
2017-07-09T13:56:27.325Z,12.60
2017-07-09T13:58:55.736Z,14.23
2017-07-09T14:01:24.104Z,14.63
2017-07-09T14:03:52.408Z,11.43
2017-07-09T14:06:20.769Z,12.73
2017-07-09T14:08:49.149Z,13.17
2017-07-09T14:11:18.016Z,12.90
2017-07-09T14:13:47.856Z,13.37
2017-07-09T14:16:17.568Z,14.47
2017-07-09T14:18:46.289Z,19.97
2017-07-09T14:21:14.807Z,11.77
2017-07-09T14:23:43.971Z,13.90
2017-07-09T14:26:12.319Z,14.07
2017-07-09T14:28:41.453Z,13.20
2017-07-09T14:31:09.825Z,15.73
2017-07-09T14:33:38.176Z,12.57
2017-07-09T14:36:06.712Z,12.00
2017-07-09T14:38:35.821Z,12.53
2017-07-09T14:41:07.102Z,16.60
2017-07-09T14:43:35.405Z,12.90
2017-07-09T14:46:03.787Z,13.00
2017-07-09T14:48:32.111Z,17.00
2017-07-09T14:51:00.478Z,14.30
2017-07-09T14:53:28.841Z,12.27
2017-07-09T14:55:57.207Z,13.43
2017-07-09T14:58:25.667Z,13.00
2017-07-09T15:00:53.987Z,14.00
2017-07-09T15:03:22.307Z,14.60
2017-07-09T15:05:50.656Z,14.07
2017-07-09T15:08:19.016Z,13.20
2017-07-09T15:10:47.373Z,13.27
2017-07-09T15:13:15.797Z,13.50
2017-07-09T15:15:44.091Z,14.13
2017-07-09T15:18:12.461Z,14.10
2017-07-09T15:20:40.843Z,12.63
2017-07-09T15:23:09.165Z,17.20
2017-07-09T15:25:37.565Z,13.50
2017-07-09T15:28:05.986Z,14.27
2017-07-09T15:30:34.356Z,14.47
2017-07-09T15:33:02.879Z,14.40
2017-07-09T15:35:31.265Z,15.20
2017-07-09T15:37:59.635Z,15.73
2017-07-09T15:40:28.017Z,17.03
2017-07-09T15:42:56.392Z,15.83
2017-07-09T15:45:24.708Z,18.67
2017-07-09T15:47:53.064Z,16.90
2017-07-09T15:50:21.423Z,18.70
2017-07-09T15:52:49.774Z,14.97
2017-07-09T15:55:18.182Z,16.10
2017-07-09T15:57:46.561Z,16.03
2017-07-09T16:00:14.952Z,15.13
2017-07-09T16:02:43.358Z,16.83
2017-07-09T16:05:11.664Z,17.97
2017-07-09T16:07:40.058Z,14.80
2017-07-09T16:10:08.418Z,18.50
2017-07-09T16:12:36.947Z,13.70
2017-07-09T16:15:05.321Z,14.47
2017-07-09T16:17:33.723Z,13.47
2017-07-09T16:20:02.085Z,18.30
2017-07-09T16:22:30.440Z,13.80
2017-07-09T16:24:58.732Z,12.63
2017-07-09T16:27:27.069Z,15.20
2017-07-09T16:29:55.415Z,14.03
2017-07-09T16:32:23.739Z,12.10
2017-07-09T16:34:52.093Z,13.93
2017-07-09T16:37:20.471Z,13.93
2017-07-09T16:39:48.933Z,13.30
2017-07-09T16:42:17.380Z,17.23
2017-07-09T16:44:45.781Z,14.43
2017-07-09T16:47:14.194Z,14.87
2017-07-09T16:49:43.393Z,13.80
2017-07-09T16:52:12.581Z,14.60
2017-07-09T16:54:40.990Z,12.83
2017-07-09T16:57:09.381Z,18.00
2017-07-09T16:59:37.803Z,13.77
2017-07-09T17:02:06.252Z,13.10
2017-07-09T17:04:34.740Z,16.00
2017-07-09T17:07:08.181Z,19.27
2017-07-09T17:09:36.599Z,17.53
2017-07-09T17:12:04.908Z,15.67
2017-07-09T17:14:33.247Z,15.10
2017-07-09T17:17:01.609Z,16.40
2017-07-09T17:19:29.913Z,16.80
2017-07-09T17:21:58.268Z,16.20
2017-07-09T17:24:26.693Z,15.27
2017-07-09T17:26:55.035Z,15.20
2017-07-09T17:29:23.387Z,17.47
2017-07-09T17:31:51.787Z,15.80
2017-07-09T17:34:20.095Z,15.30
2017-07-09T17:36:48.446Z,18.27
2017-07-09T17:39:16.800Z,18.67
2017-07-09T17:41:45.145Z,16.37
2017-07-09T17:44:13.510Z,15.10
2017-07-09T17:46:41.809Z,14.20
2017-07-09T17:49:10.128Z,15.80
2017-07-09T17:51:38.473Z,16.47
2017-07-09T17:54:06.803Z,16.83
2017-07-09T17:56:35.152Z,18.13
2017-07-09T17:59:04.441Z,15.33
2017-07-09T18:01:32.738Z,16.10
2017-07-09T18:04:01.039Z,17.60
2017-07-09T18:06:29.393Z,20.33
2017-07-09T18:08:57.708Z,17.50
2017-07-09T18:11:26.024Z,17.43
2017-07-09T18:13:54.372Z,14.80
2017-07-09T18:16:23.443Z,21.63
2017-07-09T18:18:51.784Z,19.00
2017-07-09T18:21:20.385Z,20.80
2017-07-09T18:23:48.728Z,17.07
2017-07-09T18:26:17.099Z,23.73
2017-07-09T18:28:45.664Z,20.00
2017-07-09T18:31:14.262Z,17.37
2017-07-09T18:33:42.596Z,24.07
2017-07-09T18:36:10.911Z,18.20
2017-07-09T18:38:39.252Z,18.10
2017-07-09T18:41:07.779Z,22.10
2017-07-09T18:43:36.205Z,24.00
2017-07-09T18:46:04.504Z,19.87
2017-07-09T18:48:32.827Z,18.37
2017-07-09T18:51:01.161Z,16.50
2017-07-09T18:53:30.283Z,18.20
2017-07-09T18:55:58.628Z,17.90
2017-07-09T18:58:26.981Z,16.30
2017-07-09T19:00:55.323Z,17.67
2017-07-09T19:03:24.414Z,17.53
2017-07-09T19:05:52.752Z,18.13
2017-07-09T19:08:21.064Z,20.33
2017-07-09T19:10:49.401Z,17.90
2017-07-09T19:13:17.712Z,16.87
2017-07-09T19:15:46.116Z,19.77
2017-07-09T19:18:14.412Z,36.53
2017-07-09T19:20:42.773Z,19.83
2017-07-09T19:23:12.057Z,20.13
2017-07-09T19:25:40.354Z,19.70
2017-07-09T19:28:08.699Z,22.73
2017-07-09T19:30:37.044Z,20.23
2017-07-09T19:33:05.344Z,17.53
2017-07-09T19:35:34.589Z,17.80
2017-07-09T19:38:02.924Z,17.13
2017-07-09T19:40:31.224Z,18.50
2017-07-09T19:42:59.572Z,18.80
2017-07-09T19:45:27.869Z,21.80
2017-07-09T19:47:56.245Z,20.20
2017-07-09T19:50:24.553Z,26.00
2017-07-09T19:52:52.855Z,20.93
2017-07-09T19:55:21.208Z,25.33
2017-07-09T19:57:50.037Z,22.33
2017-07-09T20:00:18.380Z,22.47
2017-07-09T20:02:46.743Z,22.57
2017-07-09T20:05:15.089Z,22.80
2017-07-09T20:07:44.703Z,21.83
2017-07-09T20:10:13.155Z,20.27
2017-07-09T20:12:41.460Z,20.27
2017-07-09T20:15:10.584Z,20.60
2017-07-09T20:17:39.196Z,23.97
2017-07-09T20:20:07.555Z,22.57
2017-07-09T20:22:35.912Z,21.53
2017-07-09T20:25:04.316Z,21.37
2017-07-09T20:27:32.677Z,22.57
2017-07-09T20:30:00.982Z,24.57
2017-07-09T20:32:29.329Z,25.57
2017-07-09T20:34:57.632Z,19.43
2017-07-09T20:37:26.004Z,20.70
2017-07-09T20:39:54.363Z,22.50
2017-07-09T20:42:29.248Z,21.97
2017-07-09T20:44:57.601Z,25.00
2017-07-09T20:47:25.915Z,26.50
2017-07-09T20:49:54.289Z,24.23
2017-07-09T20:52:22.652Z,20.23
2017-07-09T20:54:51.592Z,28.17
2017-07-09T20:57:20.075Z,21.90
2017-07-09T20:59:49.150Z,22.30
2017-07-09T21:02:17.452Z,22.03
2017-07-09T21:04:45.802Z,21.77
2017-07-09T21:07:14.265Z,20.83
2017-07-09T21:09:42.722Z,26.47
2017-07-09T21:12:11.016Z,25.47
2017-07-09T21:14:39.425Z,21.30
2017-07-09T21:17:08.539Z,22.40
2017-07-09T21:19:37.613Z,22.60
2017-07-09T21:22:05.964Z,21.80
2017-07-09T21:24:34.280Z,22.47
2017-07-09T21:27:02.631Z,20.97
2017-07-09T21:29:31.106Z,19.70
2017-07-09T21:31:59.900Z,20.97
2017-07-09T21:34:28.205Z,33.63
2017-07-09T21:36:59.821Z,22.00
2017-07-09T21:39:28.129Z,22.10
2017-07-09T21:41:56.432Z,24.57
2017-07-09T21:44:24.780Z,20.20
2017-07-09T21:46:53.093Z,28.93
2017-07-09T21:49:21.952Z,37.70
2017-07-09T21:51:50.265Z,25.40
2017-07-09T21:54:19.970Z,21.27
2017-07-09T21:56:48.288Z,20.33
2017-07-09T21:59:16.646Z,24.80
2017-07-09T22:01:44.947Z,25.23
2017-07-09T22:04:13.500Z,25.27
2017-07-09T22:06:42.593Z,26.17
2017-07-09T22:09:10.906Z,24.70
2017-07-09T22:11:40.023Z,33.23
2017-07-09T22:14:08.348Z,21.33
2017-07-09T22:16:36.707Z,25.60
2017-07-09T22:19:07.109Z,22.87
2017-07-09T22:21:35.569Z,22.30
2017-07-09T22:24:03.916Z,22.50
2017-07-09T22:26:32.224Z,23.20
2017-07-09T22:29:00.595Z,23.57
2017-07-09T22:31:28.912Z,24.57
2017-07-09T22:33:57.236Z,23.17
2017-07-09T22:36:25.588Z,28.77
2017-07-09T22:38:53.943Z,23.57
2017-07-09T22:41:22.294Z,22.93
2017-07-09T22:43:50.643Z,24.30
2017-07-09T22:46:18.955Z,22.83
2017-07-09T22:48:47.320Z,22.33
2017-07-09T22:51:16.451Z,26.30
2017-07-09T22:53:44.768Z,21.60
2017-07-09T22:56:13.952Z,22.63
2017-07-09T22:58:42.309Z,22.70
2017-07-09T23:01:10.624Z,33.57
2017-07-09T23:03:38.979Z,25.33
2017-07-09T23:06:07.349Z,26.27
2017-07-09T23:08:36.910Z,24.47
2017-07-09T23:11:06.400Z,22.47
2017-07-09T23:13:34.743Z,28.37
2017-07-09T23:16:03.097Z,25.87
2017-07-09T23:18:31.394Z,24.90
2017-07-09T23:21:00.507Z,29.33
2017-07-09T23:23:29.631Z,26.93
2017-07-09T23:25:57.947Z,25.10
2017-07-09T23:28:26.384Z,25.70
2017-07-09T23:30:55.456Z,25.60
2017-07-09T23:33:23.785Z,25.03
2017-07-09T23:35:52.136Z,23.63
2017-07-09T23:38:20.467Z,25.17
2017-07-09T23:40:49.587Z,22.87
2017-07-09T23:43:17.942Z,21.30
2017-07-09T23:45:46.249Z,22.60
2017-07-09T23:48:14.594Z,24.63
2017-07-09T23:50:42.936Z,26.73
2017-07-09T23:53:11.294Z,26.13
2017-07-09T23:55:39.591Z,21.47
2017-07-09T23:58:08.144Z,25.87
